createdAt,value
2019-06-07T00:00:51.625Z,13.10
2019-06-07T00:03:27.612Z,13.32
2019-06-07T00:05:52.152Z,12.23
2019-06-07T00:08:28.054Z,12.63
2019-06-07T00:10:52.711Z,12.18
2019-06-07T00:13:22.058Z,11.80
2019-06-07T00:15:51.483Z,11.05
2019-06-07T00:18:25.703Z,10.60
2019-06-07T00:20:51.946Z,10.72
2019-06-07T00:23:22.934Z,11.20
2019-06-07T00:25:52.497Z,11.03
2019-06-07T00:28:21.903Z,11.57
2019-06-07T00:30:52.669Z,11.28
2019-06-07T00:33:24.843Z,12.07
2019-06-07T00:35:53.355Z,11.33
2019-06-07T00:38:22.831Z,11.10
2019-06-07T00:40:52.182Z,12.37
2019-06-07T00:43:27.944Z,12.03
2019-06-07T00:45:52.678Z,12.90
2019-06-07T00:48:30.823Z,12.85
2019-06-07T00:50:53.158Z,12.98
2019-06-07T00:53:31.664Z,12.88
2019-06-07T00:55:53.641Z,14.23
2019-06-07T00:58:27.523Z,11.95
2019-06-07T01:00:54.162Z,12.50
2019-06-07T01:03:25.671Z,11.88
2019-06-07T01:05:54.556Z,12.10
2019-06-07T01:08:28.266Z,10.80
2019-06-07T01:10:55.086Z,11.40
2019-06-07T01:13:26.757Z,11.95
2019-06-07T01:15:55.741Z,11.88
2019-06-07T01:18:37.329Z,11.50
2019-06-07T01:20:56.192Z,12.15
2019-06-07T01:23:59.870Z,13.10
2019-06-07T01:25:56.815Z,12.60
2019-06-07T01:28:27.100Z,11.55
2019-06-07T01:30:57.355Z,13.88
2019-06-07T01:33:49.309Z,13.88
2019-06-07T01:35:57.868Z,13.18
2019-06-07T01:38:29.809Z,13.65
2019-06-07T01:40:58.353Z,13.00
2019-06-07T01:43:29.128Z,13.28
2019-06-07T01:45:58.811Z,12.45
2019-06-07T01:48:48.178Z,12.88
2019-06-07T01:50:59.221Z,14.35
2019-06-07T01:53:31.385Z,12.37
2019-06-07T01:55:59.720Z,13.70
2019-06-07T01:58:29.282Z,14.28
2019-06-07T02:00:58.643Z,14.18
2019-06-07T02:03:32.166Z,13.88
2019-06-07T02:05:59.254Z,13.98
2019-06-07T02:08:34.092Z,15.32
2019-06-07T02:10:59.755Z,16.05
2019-06-07T02:13:30.735Z,14.65
2019-06-07T02:16:00.313Z,14.68
2019-06-07T02:18:34.373Z,16.40
2019-06-07T02:21:00.771Z,18.62
2019-06-07T02:23:31.660Z,15.55
2019-06-07T02:26:01.299Z,16.07
2019-06-07T02:28:44.384Z,16.50
2019-06-07T02:31:01.802Z,17.35
2019-06-07T02:33:39.616Z,17.40
2019-06-07T02:36:02.266Z,14.38
2019-06-07T02:38:37.163Z,14.83
2019-06-07T02:41:02.879Z,15.40
2019-06-07T02:43:36.237Z,16.80
2019-06-07T02:46:24.052Z,17.52
2019-06-07T02:48:39.851Z,16.67
2019-06-07T02:51:05.633Z,18.70
2019-06-07T02:53:40.070Z,18.32
2019-06-07T02:56:37.249Z,16.67
2019-06-07T02:58:41.550Z,16.37
2019-06-07T03:01:09.919Z,16.65
2019-06-07T03:03:40.209Z,14.25
2019-06-07T03:06:11.225Z,13.70
2019-06-07T03:08:42.865Z,13.83
2019-06-07T03:11:14.127Z,12.68
2019-06-07T03:13:46.728Z,13.28
2019-06-07T03:16:24.480Z,13.18
2019-06-07T03:18:57.553Z,12.90
2019-06-07T03:21:29.469Z,13.00
2019-06-07T03:23:59.874Z,11.97
2019-06-07T03:26:31.318Z,10.98
2019-06-07T03:29:00.894Z,9.83
2019-06-07T03:31:35.324Z,9.18
2019-06-07T03:34:01.413Z,8.48
2019-06-07T03:36:32.136Z,7.87
2019-06-07T03:39:01.715Z,7.50
2019-06-07T03:41:36.795Z,7.53
2019-06-07T03:44:02.168Z,7.45
2019-06-07T03:46:36.223Z,7.50
2019-06-07T03:49:02.957Z,6.83
2019-06-07T03:51:34.875Z,6.15
2019-06-07T03:54:03.511Z,6.92
2019-06-07T03:56:33.754Z,6.62
2019-06-07T03:59:04.125Z,6.75
2019-06-07T04:01:34.831Z,6.60
2019-06-07T04:04:04.638Z,6.58
2019-06-07T04:06:36.181Z,6.20
2019-06-07T04:09:06.746Z,6.37
2019-06-07T04:11:39.429Z,6.95
2019-06-07T04:14:07.284Z,6.70
2019-06-07T04:16:40.852Z,6.92
2019-06-07T04:19:07.795Z,6.87
2019-06-07T04:21:41.998Z,7.45
2019-06-07T04:24:08.276Z,8.03
2019-06-07T04:26:43.272Z,7.90
2019-06-07T04:29:32.299Z,7.47
2019-06-07T04:31:42.920Z,7.45
2019-06-07T04:34:11.056Z,7.67
2019-06-07T04:36:55.808Z,8.13
2019-06-07T04:39:12.526Z,8.25
2019-06-07T04:41:43.810Z,7.58
2019-06-07T04:44:15.019Z,7.53
2019-06-07T04:46:47.264Z,7.15
2019-06-07T04:49:41.143Z,7.70
2019-06-07T04:52:08.438Z,8.38
2019-06-07T04:54:40.626Z,7.80
2019-06-07T04:57:08.939Z,7.58
2019-06-07T05:02:09.429Z,7.28
2019-06-07T05:04:41.631Z,7.47
2019-06-07T05:07:10.065Z,7.12
2019-06-07T05:09:42.936Z,6.90
2019-06-07T05:12:10.324Z,7.30
2019-06-07T05:14:42.395Z,7.90
2019-06-07T05:17:10.893Z,7.20
2019-06-07T05:19:44.131Z,7.65
2019-06-07T05:22:11.407Z,7.42
2019-06-07T05:24:41.577Z,7.42
2019-06-07T05:27:11.945Z,6.80
2019-06-07T05:29:43.839Z,7.33
2019-06-07T05:32:13.083Z,6.67
2019-06-07T05:34:46.967Z,6.65
2019-06-07T05:37:13.506Z,6.92
2019-06-07T05:39:46.295Z,7.05
2019-06-07T05:42:13.737Z,6.40
2019-06-07T05:44:45.476Z,7.57
2019-06-07T05:47:13.862Z,6.87
2019-06-07T05:49:46.387Z,6.83
2019-06-07T05:52:13.826Z,6.53
2019-06-07T05:54:45.511Z,7.05
2019-06-07T05:57:14.317Z,6.50
2019-06-07T05:59:46.753Z,6.80
2019-06-07T06:02:22.801Z,6.78
2019-06-07T06:04:49.003Z,5.97
2019-06-07T06:07:16.475Z,6.80
2019-06-07T06:09:46.163Z,6.70
2019-06-07T06:12:33.542Z,6.77
2019-06-07T06:14:47.176Z,6.10
2019-06-07T06:17:16.418Z,6.87
2019-06-07T06:19:49.644Z,6.17
2019-06-07T06:22:16.331Z,6.67
2019-06-07T06:25:24.332Z,6.20
2019-06-07T06:27:55.638Z,6.70
2019-06-07T06:29:50.448Z,6.83
2019-06-07T06:34:50.669Z,6.73
2019-06-07T06:37:19.576Z,6.60
2019-06-07T06:39:50.116Z,8.37
2019-06-07T06:42:19.530Z,7.57
2019-06-07T06:44:52.274Z,7.50
2019-06-07T06:47:19.601Z,7.67
2019-06-07T06:49:50.145Z,6.93
2019-06-07T06:52:19.626Z,7.10
2019-06-07T06:54:59.349Z,7.13
2019-06-07T06:57:20.487Z,7.43
2019-06-07T06:59:52.525Z,7.53
2019-06-07T07:02:20.574Z,7.27
2019-06-07T07:04:53.528Z,7.60
2019-06-07T07:07:20.745Z,7.17
2019-06-07T07:09:54.741Z,7.57
2019-06-07T07:12:20.956Z,7.00
2019-06-07T07:14:55.148Z,7.13
2019-06-07T07:17:44.729Z,6.50
2019-06-07T07:19:53.073Z,5.70
2019-06-07T07:22:22.403Z,6.30
2019-06-07T07:24:53.396Z,6.70
2019-06-07T07:27:22.279Z,6.77
2019-06-07T07:30:10.291Z,6.23
2019-06-07T07:32:22.220Z,6.53
2019-06-07T07:34:54.505Z,6.87
2019-06-07T07:37:22.134Z,6.70
2019-06-07T07:40:00.708Z,6.70
2019-06-07T07:42:22.134Z,7.10
2019-06-07T07:44:53.727Z,7.07
2019-06-07T07:47:22.149Z,7.03
2019-06-07T07:49:53.041Z,7.70
2019-06-07T07:52:22.085Z,6.90
2019-06-07T07:54:52.853Z,7.47
2019-06-07T07:57:22.000Z,7.37
2019-06-07T08:00:08.309Z,7.17
2019-06-07T08:02:21.845Z,7.90
2019-06-07T08:05:16.555Z,7.50
2019-06-07T08:07:21.669Z,7.97
2019-06-07T08:09:55.669Z,7.90
2019-06-07T08:12:21.541Z,8.00
2019-06-07T08:14:53.533Z,7.60
2019-06-07T08:17:21.489Z,7.33
2019-06-07T08:19:52.268Z,7.30
2019-06-07T08:22:21.383Z,6.80
2019-06-07T08:24:53.172Z,7.70
2019-06-07T08:27:26.236Z,7.90
2019-06-07T08:30:10.221Z,7.20
2019-06-07T08:32:24.403Z,7.60
2019-06-07T08:34:59.751Z,7.13
2019-06-07T08:38:13.364Z,7.47
2019-06-07T08:39:56.752Z,8.00
2019-06-07T08:42:36.909Z,6.93
2019-06-07T08:45:02.963Z,6.97
2019-06-07T08:47:27.410Z,6.53
2019-06-07T08:50:01.483Z,7.40
2019-06-07T08:52:27.314Z,7.00
2019-06-07T08:54:57.846Z,7.23
2019-06-07T08:57:27.159Z,7.10
2019-06-07T08:59:59.872Z,6.57
2019-06-07T09:02:27.030Z,5.67
2019-06-07T09:04:59.274Z,6.20
2019-06-07T09:07:26.923Z,6.73
2019-06-07T09:10:03.584Z,7.50
2019-06-07T09:12:26.830Z,6.70
2019-06-07T09:15:06.233Z,7.23
2019-06-07T09:17:26.689Z,6.43
2019-06-07T09:19:58.202Z,6.43
2019-06-07T09:22:26.516Z,5.97
2019-06-07T09:25:02.829Z,6.70
2019-06-07T09:27:27.459Z,6.17
2019-06-07T09:30:03.200Z,6.90
2019-06-07T09:32:27.968Z,6.53
2019-06-07T09:35:03.911Z,7.00
2019-06-07T09:40:09.735Z,6.93
2019-06-07T09:42:29.494Z,6.83
2019-06-07T09:45:01.192Z,6.67
2019-06-07T09:47:32.847Z,6.90
2019-06-07T09:50:08.343Z,6.77
2019-06-07T09:52:31.417Z,6.47
2019-06-07T09:55:12.042Z,6.83
2019-06-07T09:57:31.248Z,6.77
2019-06-07T10:00:04.023Z,8.10
2019-06-07T10:02:31.118Z,6.77
2019-06-07T10:05:02.560Z,6.10
2019-06-07T10:07:32.141Z,7.10
2019-06-07T10:12:32.118Z,7.20
2019-06-07T10:15:01.202Z,6.37
2019-06-07T10:17:30.307Z,7.27
2019-06-07T10:20:00.474Z,6.57
2019-06-07T10:22:30.159Z,6.80
2019-06-07T10:24:59.699Z,6.63
2019-06-07T10:27:28.973Z,6.83
2019-06-07T10:29:58.021Z,6.53
2019-06-07T10:32:27.076Z,6.87
2019-06-07T10:34:56.169Z,6.67
2019-06-07T10:37:25.289Z,6.30
2019-06-07T10:39:54.349Z,5.87
2019-06-07T10:42:23.407Z,6.60
2019-06-07T10:44:52.457Z,5.60
2019-06-07T10:47:21.542Z,5.43
2019-06-07T10:49:50.595Z,6.00
2019-06-07T10:52:19.640Z,5.80
2019-06-07T10:54:48.801Z,6.00
2019-06-07T10:57:17.855Z,5.30
2019-06-07T10:59:46.899Z,5.70
2019-06-07T11:02:16.005Z,5.27
2019-06-07T11:04:45.122Z,5.13
2019-06-07T11:07:14.522Z,5.73
2019-06-07T11:09:43.728Z,5.40
2019-06-07T11:12:12.842Z,5.20
2019-06-07T11:14:41.870Z,5.30
2019-06-07T11:17:11.306Z,5.37
2019-06-07T11:19:40.452Z,5.20
2019-06-07T11:22:10.209Z,5.13
2019-06-07T11:24:39.330Z,4.80
2019-06-07T11:27:09.645Z,5.63
2019-06-07T11:29:39.189Z,5.07
2019-06-07T11:32:08.454Z,5.90
2019-06-07T11:34:37.484Z,5.30
2019-06-07T11:37:07.355Z,8.17
2019-06-07T11:39:37.400Z,4.73
2019-06-07T11:42:07.898Z,4.73
2019-06-07T11:44:37.117Z,5.10
2019-06-07T11:47:06.495Z,4.60
2019-06-07T11:49:35.616Z,4.80
2019-06-07T11:52:04.664Z,4.90
2019-06-07T11:54:33.733Z,4.97
2019-06-07T11:57:02.916Z,4.70
2019-06-07T11:59:31.971Z,4.47
2019-06-07T12:02:01.017Z,4.87
2019-06-07T12:04:34.898Z,4.90
2019-06-07T12:07:00.973Z,4.30
2019-06-07T12:09:30.002Z,4.60
2019-06-07T12:11:59.056Z,4.83
2019-06-07T12:14:28.116Z,4.23
2019-06-07T12:16:57.163Z,4.40
2019-06-07T12:19:26.233Z,4.70
2019-06-07T12:21:55.350Z,4.27
2019-06-07T12:24:24.422Z,4.17
2019-06-07T12:26:53.483Z,4.90
2019-06-07T12:29:22.538Z,4.07
2019-06-07T12:31:51.605Z,4.40
2019-06-07T12:34:21.669Z,4.30
2019-06-07T12:36:50.967Z,4.40
2019-06-07T12:39:20.163Z,4.50
2019-06-07T12:41:49.242Z,4.13
2019-06-07T12:44:18.660Z,4.07
2019-06-07T12:46:47.735Z,4.20
2019-06-07T12:49:17.086Z,4.20
2019-06-07T12:51:46.114Z,4.27
2019-06-07T12:54:15.457Z,4.50
2019-06-07T12:56:44.716Z,4.30
2019-06-07T12:59:13.959Z,4.70
2019-06-07T13:01:43.061Z,4.33
2019-06-07T13:04:12.255Z,4.57
2019-06-07T13:06:41.425Z,4.50
2019-06-07T13:09:10.472Z,3.87
2019-06-07T13:11:39.564Z,4.43
2019-06-07T13:14:08.606Z,4.10
2019-06-07T13:16:37.696Z,4.07
2019-06-07T13:19:06.748Z,4.60
2019-06-07T13:21:35.781Z,4.10
2019-06-07T13:24:05.015Z,3.50
2019-06-07T13:26:34.061Z,4.87
2019-06-07T13:29:03.148Z,4.30
2019-06-07T13:31:32.223Z,4.37
2019-06-07T13:34:01.292Z,4.50
2019-06-07T13:36:30.307Z,4.10
2019-06-07T13:38:59.386Z,5.03
2019-06-07T13:41:40.559Z,4.27
2019-06-07T13:43:59.219Z,4.30
2019-06-07T13:46:28.316Z,6.40
2019-06-07T13:48:57.366Z,4.50
2019-06-07T13:51:27.027Z,4.07
2019-06-07T13:53:57.193Z,3.93
2019-06-07T13:56:26.328Z,3.83
2019-06-07T13:58:55.465Z,4.20
2019-06-07T14:01:24.695Z,4.43
2019-06-07T14:03:53.719Z,4.43
2019-06-07T14:06:23.506Z,4.67
2019-06-07T14:08:52.642Z,5.20
2019-06-07T14:11:21.683Z,4.03
2019-06-07T14:13:50.772Z,5.03
2019-06-07T14:16:20.087Z,4.73
2019-06-07T14:18:49.142Z,4.73
2019-06-07T14:21:18.274Z,4.60
2019-06-07T14:23:49.275Z,4.20
2019-06-07T14:26:18.115Z,4.57
2019-06-07T14:28:47.173Z,4.57
2019-06-07T14:31:16.220Z,4.13
2019-06-07T14:33:45.412Z,4.50
2019-06-07T14:36:14.482Z,4.87
2019-06-07T14:38:43.524Z,6.07
2019-06-07T14:41:12.612Z,4.60
2019-06-07T14:43:41.983Z,4.87
2019-06-07T14:46:11.481Z,4.77
2019-06-07T14:48:40.602Z,5.07
2019-06-07T14:51:09.661Z,5.23
2019-06-07T14:53:38.726Z,5.20
2019-06-07T14:56:07.783Z,4.43
2019-06-07T14:58:42.750Z,4.73
2019-06-07T15:01:07.625Z,6.33
2019-06-07T15:03:36.836Z,4.60
2019-06-07T15:06:05.883Z,4.93
2019-06-07T15:08:35.059Z,4.87
2019-06-07T15:11:04.082Z,4.87
2019-06-07T15:13:33.637Z,5.03
2019-06-07T15:16:02.940Z,4.47
2019-06-07T15:18:31.996Z,4.37
2019-06-07T15:21:01.066Z,5.07
2019-06-07T15:23:31.113Z,4.97
2019-06-07T15:26:00.304Z,4.73
2019-06-07T15:28:30.187Z,4.70
2019-06-07T15:30:59.470Z,4.70
2019-06-07T15:33:29.640Z,4.80
2019-06-07T15:35:58.786Z,4.33
2019-06-07T15:38:28.968Z,5.13
2019-06-07T15:40:58.249Z,4.63
2019-06-07T15:43:27.297Z,5.20
2019-06-07T15:45:56.439Z,5.03
2019-06-07T15:48:25.527Z,4.23
2019-06-07T15:50:54.645Z,4.60
2019-06-07T15:53:23.780Z,4.60
2019-06-07T15:55:52.906Z,4.63
2019-06-07T15:58:21.975Z,4.43
2019-06-07T16:00:51.034Z,4.10
2019-06-07T16:03:20.157Z,4.00
2019-06-07T16:05:49.301Z,4.10
2019-06-07T16:08:18.353Z,4.00
2019-06-07T16:10:47.467Z,4.50
2019-06-07T16:13:16.565Z,4.57
2019-06-07T16:15:45.622Z,4.77
2019-06-07T16:18:14.774Z,4.20
2019-06-07T16:20:44.129Z,4.20
2019-06-07T16:23:13.234Z,4.10
2019-06-07T16:25:42.416Z,4.40
2019-06-07T16:28:11.598Z,4.10
2019-06-07T16:30:40.757Z,5.93
2019-06-07T16:33:09.827Z,6.20
2019-06-07T16:35:39.076Z,4.93
2019-06-07T16:38:08.284Z,11.83
2019-06-07T16:40:38.402Z,9.80
2019-06-07T16:43:16.616Z,6.60
2019-06-07T16:45:38.717Z,4.90
2019-06-07T16:48:07.796Z,7.70
2019-06-07T16:50:36.933Z,7.93
2019-06-07T16:53:06.151Z,8.13
2019-06-07T16:55:36.399Z,7.00
2019-06-07T16:58:05.642Z,9.57
2019-06-07T17:00:34.898Z,9.33
2019-06-07T17:03:04.470Z,10.20
2019-06-07T17:05:33.537Z,12.27
2019-06-07T17:08:02.680Z,7.10
2019-06-07T17:10:31.800Z,6.67
2019-06-07T17:13:00.900Z,6.20
2019-06-07T17:15:30.016Z,5.83
2019-06-07T17:17:59.054Z,5.57
2019-06-07T17:20:28.177Z,6.60
2019-06-07T17:22:57.319Z,9.60
2019-06-07T17:25:26.470Z,5.23
2019-06-07T17:27:55.564Z,4.67
2019-06-07T17:30:24.618Z,5.87
2019-06-07T17:32:58.976Z,5.40
2019-06-07T17:35:24.569Z,6.43
2019-06-07T17:37:53.638Z,6.13
2019-06-07T17:40:23.030Z,5.57
2019-06-07T17:42:52.077Z,6.37
2019-06-07T17:45:21.234Z,5.43
2019-06-07T17:47:51.956Z,6.07
2019-06-07T17:50:22.410Z,5.40
2019-06-07T17:52:52.096Z,11.07
2019-06-07T17:55:21.395Z,10.17
2019-06-07T17:57:50.929Z,9.17
2019-06-07T18:00:29.034Z,11.03
2019-06-07T18:02:52.963Z,8.27
2019-06-07T18:05:22.386Z,8.57
2019-06-07T18:07:53.876Z,8.67
2019-06-07T18:10:34.564Z,7.90
2019-06-07T18:13:03.621Z,8.53
2019-06-07T18:15:44.497Z,7.80
2019-06-07T18:18:13.845Z,9.13
2019-06-07T18:20:43.313Z,8.13
2019-06-07T18:23:12.938Z,7.50
2019-06-07T18:25:42.085Z,9.73
2019-06-07T18:28:11.641Z,9.80
2019-06-07T18:30:40.777Z,11.30
2019-06-07T18:33:09.885Z,9.73
2019-06-07T18:35:38.932Z,10.83
2019-06-07T18:38:10.739Z,9.20
2019-06-07T18:40:38.897Z,9.83
2019-06-07T18:43:07.950Z,10.13
2019-06-07T18:45:37.106Z,9.40
2019-06-07T18:48:06.842Z,10.10
2019-06-07T18:50:36.512Z,10.23
2019-06-07T18:53:05.743Z,8.90
2019-06-07T18:55:34.867Z,9.90
2019-06-07T18:58:04.443Z,11.63
2019-06-07T19:00:34.007Z,12.95
2019-06-07T19:03:03.447Z,11.60
2019-06-07T19:05:32.884Z,14.03
2019-06-07T19:08:02.076Z,14.20
2019-06-07T19:10:32.019Z,17.90
2019-06-07T19:13:01.367Z,16.75
2019-06-07T19:15:30.645Z,18.23
2019-06-07T19:18:00.978Z,14.38
2019-06-07T19:20:31.789Z,17.50
2019-06-07T19:23:01.219Z,12.23
2019-06-07T19:25:30.390Z,10.67
2019-06-07T19:28:01.102Z,12.68
2019-06-07T19:30:30.530Z,12.33
2019-06-07T19:33:01.572Z,11.50
2019-06-07T19:35:30.806Z,9.57
2019-06-07T19:38:00.103Z,8.50
2019-06-07T19:40:29.686Z,8.48
2019-06-07T19:42:59.269Z,8.73
2019-06-07T19:45:31.529Z,7.95
2019-06-07T19:48:01.017Z,8.00
2019-06-07T19:50:30.605Z,7.70
2019-06-07T19:53:01.189Z,8.10
2019-06-07T19:55:30.808Z,8.20
2019-06-07T19:57:59.994Z,7.90
2019-06-07T20:00:29.221Z,9.77
2019-06-07T20:02:59.963Z,9.85
2019-06-07T20:05:29.136Z,8.90
2019-06-07T20:07:58.541Z,9.10
2019-06-07T20:10:27.812Z,9.00
2019-06-07T20:12:58.559Z,8.90
2019-06-07T20:15:29.599Z,8.60
2019-06-07T20:17:59.321Z,8.75
2019-06-07T20:20:30.092Z,9.48
2019-06-07T20:23:00.958Z,9.03
2019-06-07T20:25:30.460Z,8.70
2019-06-07T20:28:01.384Z,9.35
2019-06-07T20:30:30.954Z,8.60
2019-06-07T20:33:01.738Z,9.20
2019-06-07T20:35:31.389Z,9.08
2019-06-07T20:38:01.087Z,9.43
2019-06-07T20:40:30.679Z,9.30
2019-06-07T20:43:01.433Z,9.85
2019-06-07T20:45:33.912Z,9.93
2019-06-07T20:48:02.179Z,10.58
2019-06-07T20:50:31.491Z,10.05
2019-06-07T20:53:01.709Z,10.53
2019-06-07T20:55:32.095Z,10.72
2019-06-07T20:58:03.583Z,10.68
2019-06-07T21:00:32.619Z,11.08
2019-06-07T21:03:03.248Z,11.30
2019-06-07T21:05:32.734Z,11.65
2019-06-07T21:08:03.757Z,11.70
2019-06-07T21:10:33.349Z,11.60
2019-06-07T21:13:03.886Z,11.73
2019-06-07T21:15:47.923Z,11.35
2019-06-07T21:18:09.616Z,11.95
2019-06-07T21:20:35.870Z,11.70
2019-06-07T21:23:05.267Z,10.93
2019-06-07T21:25:34.686Z,11.15
2019-06-07T21:28:05.177Z,12.58
2019-06-07T21:30:34.706Z,12.82
2019-06-07T21:33:05.447Z,13.28
2019-06-07T21:35:34.857Z,13.58
2019-06-07T21:38:05.971Z,12.78
2019-06-07T21:40:35.457Z,12.75
2019-06-07T21:43:06.254Z,12.40
2019-06-07T21:45:35.826Z,11.75
2019-06-07T21:48:07.030Z,11.25
2019-06-07T21:50:36.407Z,12.03
2019-06-07T21:53:06.571Z,11.60
2019-06-07T21:55:36.205Z,11.15
2019-06-07T21:58:06.956Z,10.82
2019-06-07T22:00:43.703Z,11.25
2019-06-07T22:03:13.547Z,12.07
2019-06-07T22:05:43.108Z,10.35
2019-06-07T22:08:12.569Z,12.07
2019-06-07T22:10:41.926Z,11.18
2019-06-07T22:13:12.179Z,11.18
2019-06-07T22:15:41.728Z,11.12
2019-06-07T22:18:12.866Z,10.70
2019-06-07T22:20:42.370Z,12.20
2019-06-07T22:23:12.739Z,10.82
2019-06-07T22:25:42.180Z,11.90
2019-06-07T22:28:12.807Z,11.55
2019-06-07T22:30:42.352Z,10.58
2019-06-07T22:33:13.377Z,11.73
2019-06-07T22:35:43.017Z,10.80
2019-06-07T22:38:12.370Z,10.10
2019-06-07T22:40:41.795Z,10.08
2019-06-07T22:43:11.824Z,10.28
2019-06-07T22:45:41.344Z,10.80
2019-06-07T22:48:11.372Z,9.25
2019-06-07T22:50:40.886Z,9.80
2019-06-07T22:53:11.358Z,8.95
2019-06-07T22:55:42.436Z,9.38
2019-06-07T22:58:12.108Z,8.93
2019-06-07T23:00:41.594Z,9.45
2019-06-07T23:03:12.565Z,8.70
2019-06-07T23:05:42.101Z,8.50
2019-06-07T23:08:12.956Z,9.00
2019-06-07T23:10:42.548Z,8.70
2019-06-07T23:13:11.964Z,9.68
2019-06-07T23:15:41.382Z,9.23
2019-06-07T23:18:11.405Z,9.28
2019-06-07T23:20:40.934Z,9.25
2019-06-07T23:23:10.352Z,9.40
2019-06-07T23:25:39.721Z,9.10
2019-06-07T23:28:10.198Z,9.00
2019-06-07T23:30:39.762Z,9.20
2019-06-07T23:33:09.251Z,8.63
2019-06-07T23:35:39.786Z,9.70
2019-06-07T23:38:09.201Z,8.30
2019-06-07T23:40:38.630Z,9.28
2019-06-07T23:43:07.976Z,8.80
2019-06-07T23:45:37.362Z,8.80
2019-06-07T23:48:06.775Z,8.23
2019-06-07T23:50:36.190Z,8.63
2019-06-07T23:53:07.371Z,8.18
2019-06-07T23:55:36.769Z,9.23
2019-06-07T23:58:06.180Z,8.53
